Topsail Beach, NC

7:35 PM EDT on May 28, 2015 (GMT -0400)
New River Marine Corps Air Station | | Change Station
CLOSE
Current Station
Airport
Location: New River MCAS,
Elevation: 26 ft
Nearby Weather Stations

Elev 26 ft 34.71 °N, 77.44 °W | Updated 39 minutes ago

Clear
Clear
77 °F
Feels Like 77 °F
N
10
Wind Variable Wind from South

Today
High -- | Low -- °F
--% Chance of Precip.
Yesterday
High -- | Low -- °F
Precip. -- in
6:00 AM 8:14 PM
Waxing Gibbous, 79% visible
Pressure 30.19 in
Visibility 10.0 miles
Clouds Clear
Dew Point 62 °F
Humidity 60%
Rainfall 0.00 in
Snow Depth Not available.
UV 1 out of 12
Pollen 6.90 out of 12
Air Quality Not available.
Flu Activity No Activity
METAR KNCA 282256Z AUTO 18009KT 10SM CLR 25/17 A3018 RMK AO2 SLP223 T02500167

More Conditions Fewer Conditions

Pressure 30.19 in
Visibility 10.0 miles
Clouds Clear
Dew Point 62 °F
Humidity 60%
Rainfall 0.00 in
Snow Depth Not available.
UV 1 out of 12
Pollen 6.90 out of 12
Air Quality Not available.
Flu Activity No Activity
METAR KNCA 282256Z AUTO 18009KT 10SM CLR 25/17 A3018 RMK AO2 SLP223 T02500167

More Conditions Fewer Conditions

10-Day Weather Forecast

Almanac

Astronomy

May. 28, 2015 Rise Set
Actual Time
Civil Twilight
Nautical Twilight
Astronomical Twilight
Moon
Length of Visible Light
Length of Day
Tomorrow will be .
, % of the Moon is Illuminated

Today's Extremes

State Highs State Lows

Community

WunderPhotos

Upload Photos

1,825,093 photos uploaded!

WunderBlogs® & News

Nearby

Air Quality

  Air Quality AQ Index Pollutant
Not available.

Snow Depth

Station Depth Elevation

Earthquake Activity

City Distance Mag. Time & Date
Minimum magnitude displayed is 2.5.

Coastal Water Temperatures

Place Temperature

Stations

Nearby Weather Stations

Station Location Temp. Windchill Dew Point Humidity Wind Precip. Elev Updated Type